AEG weather

Double Eagle II Airport
Albuquerque, New Mexico, United States

Public forecast

Using degrees Fahrenheit for public forecast. Weather courtesy of forecast.io.

Current aviation weather report (METAR) for Double Eagle II Airport

Retrieved 2020/02/20 03:47 UTC (34 minutes ago):

KAEG 200347Z 20006KT 10SM BKN120 08/00 A3013

Aviation forecast (TAF) for Double Eagle II Airport

Retrieved 2020-02-20 00:40 UTC (4 hours ago):

TAF KAEG 192338Z 2000/2024 16008KT P6SM SCT120 FM200500 33006KT P6SM SCT100 FM201100 05010KT P6SM FEW050 FM201300 07013G20KT P6SM SCT050 FM201800 12011KT P6SM SCT050